sensor_id;sensor_type;location;lat;lon;timestamp;pressure;altitude;pressure_sealevel;temperature;humidity
66801;BME280;53703;50.326;19.122;2023-04-06T00:01:54;99080.52;;;16.73;30.96
66801;BME280;53703;50.326;19.122;2023-04-06T00:04:48;99081.85;;;16.65;30.73
66801;BME280;53703;50.326;19.122;2023-04-06T00:07:42;99085.64;;;16.63;30.92
66801;BME280;53703;50.326;19.122;2023-04-06T00:10:36;99084.09;;;16.62;31.90
66801;BME280;53703;50.326;19.122;2023-04-06T00:13:31;99081.73;;;16.60;30.86
66801;BME280;53703;50.326;19.122;2023-04-06T00:16:25;99079.44;;;16.60;30.82
66801;BME280;53703;50.326;19.122;2023-04-06T00:19:22;99079.02;;;16.56;30.80
66801;BME280;53703;50.326;19.122;2023-04-06T00:22:16;99074.81;;;16.57;32.00
66801;BME280;53703;50.326;19.122;2023-04-06T00:25:11;99076.28;;;16.54;31.01
66801;BME280;53703;50.326;19.122;2023-04-06T00:28:05;99075.61;;;16.57;30.77
66801;BME280;53703;50.326;19.122;2023-04-06T00:30:59;99073.47;;;16.53;31.77
66801;BME280;53703;50.326;19.122;2023-04-06T00:33:53;99070.90;;;16.53;31.52
66801;BME280;53703;50.326;19.122;2023-04-06T00:36:47;99068.14;;;16.60;31.26
66801;BME280;53703;50.326;19.122;2023-04-06T00:39:42;99063.88;;;16.60;31.55
66801;BME280;53703;50.326;19.122;2023-04-06T00:42:40;99060.36;;;16.59;31.31
66801;BME280;53703;50.326;19.122;2023-04-06T00:45:34;99061.53;;;16.61;31.05
66801;BME280;53703;50.326;19.122;2023-04-06T00:48:28;99058.38;;;16.57;31.18
66801;BME280;53703;50.326;19.122;2023-04-06T00:51:23;99058.42;;;16.56;30.51
66801;BME280;53703;50.326;19.122;2023-04-06T00:54:20;99063.09;;;16.55;31.53
66801;BME280;53703;50.326;19.122;2023-04-06T00:57:15;99059.66;;;16.56;30.99
66801;BME280;53703;50.326;19.122;2023-04-06T01:00:12;99050.13;;;16.61;30.88
66801;BME280;53703;50.326;19.122;2023-04-06T01:03:06;99054.64;;;16.58;30.52
66801;BME280;53703;50.326;19.122;2023-04-06T01:06:01;99056.95;;;16.57;30.56
66801;BME280;53703;50.326;19.122;2023-04-06T01:08:55;99054.83;;;16.51;30.87
66801;BME280;53703;50.326;19.122;2023-04-06T01:11:49;99060.58;;;16.47;30.74
66801;BME280;53703;50.326;19.122;2023-04-06T01:14:43;99054.22;;;16.40;30.72
66801;BME280;53703;50.326;19.122;2023-04-06T01:17:37;99055.94;;;16.41;31.42
66801;BME280;53703;50.326;19.122;2023-04-06T01:20:31;99057.02;;;16.37;30.74
66801;BME280;53703;50.326;19.122;2023-04-06T01:23:25;99056.75;;;16.37;30.75
66801;BME280;53703;50.326;19.122;2023-04-06T01:26:19;99054.75;;;16.34;31.51
66801;BME280;53703;50.326;19.122;2023-04-06T01:29:13;99050.40;;;16.34;31.59
66801;BME280;53703;50.326;19.122;2023-04-06T01:32:08;99055.21;;;16.32;30.89
66801;BME280;53703;50.326;19.122;2023-04-06T01:35:03;99053.02;;;16.38;31.23
66801;BME280;53703;50.326;19.122;2023-04-06T01:37:57;99052.76;;;16.31;31.65
66801;BME280;53703;50.326;19.122;2023-04-06T01:40:51;99052.53;;;16.30;31.30
66801;BME280;53703;50.326;19.122;2023-04-06T01:43:46;99053.15;;;16.26;31.28
66801;BME280;53703;50.326;19.122;2023-04-06T01:46:41;99054.70;;;16.27;31.13
66801;BME280;53703;50.326;19.122;2023-04-06T01:49:35;99055.67;;;16.26;31.61
66801;BME280;53703;50.326;19.122;2023-04-06T01:52:29;99046.90;;;16.27;31.36
66801;BME280;53703;50.326;19.122;2023-04-06T01:55:23;99044.50;;;16.30;31.15
66801;BME280;53703;50.326;19.122;2023-04-06T01:58:17;99045.83;;;16.26;31.45
66801;BME280;53703;50.326;19.122;2023-04-06T02:01:12;99045.66;;;16.29;31.10
66801;BME280;53703;50.326;19.122;2023-04-06T02:04:06;99043.60;;;16.29;31.10
66801;BME280;53703;50.326;19.122;2023-04-06T02:07:00;99040.40;;;16.32;31.13
66801;BME280;53703;50.326;19.122;2023-04-06T02:09:56;99039.62;;;16.24;31.23
66801;BME280;53703;50.326;19.122;2023-04-06T02:12:50;99044.59;;;16.28;31.07
66801;BME280;53703;50.326;19.122;2023-04-06T02:15:45;99044.37;;;16.28;30.91
66801;BME280;53703;50.326;19.122;2023-04-06T02:18:38;99040.98;;;16.29;30.84
66801;BME280;53703;50.326;19.122;2023-04-06T02:21:33;99036.77;;;16.38;30.69
66801;BME280;53703;50.326;19.122;2023-04-06T02:24:26;99032.66;;;16.31;31.29
66801;BME280;53703;50.326;19.122;2023-04-06T02:27:20;99033.98;;;16.31;31.01
66801;BME280;53703;50.326;19.122;2023-04-06T02:30:15;99037.85;;;16.25;31.32
66801;BME280;53703;50.326;19.122;2023-04-06T02:33:09;99036.50;;;16.27;31.38
66801;BME280;53703;50.326;19.122;2023-04-06T02:36:03;99036.83;;;16.14;31.24
66801;BME280;53703;50.326;19.122;2023-04-06T02:38:58;99035.79;;;16.13;31.05
66801;BME280;53703;50.326;19.122;2023-04-06T02:41:51;99032.92;;;16.11;31.16
66801;BME280;53703;50.326;19.122;2023-04-06T02:44:46;99031.57;;;16.12;30.85
66801;BME280;53703;50.326;19.122;2023-04-06T02:47:40;99036.83;;;16.12;31.06
66801;BME280;53703;50.326;19.122;2023-04-06T02:50:34;99039.54;;;16.05;31.02
66801;BME280;53703;50.326;19.122;2023-04-06T02:53:28;99041.52;;;16.00;31.40
66801;BME280;53703;50.326;19.122;2023-04-06T02:56:22;99039.30;;;16.07;30.67
66801;BME280;53703;50.326;19.122;2023-04-06T02:59:17;99037.68;;;16.01;31.03
66801;BME280;53703;50.326;19.122;2023-04-06T03:02:11;99043.14;;;16.01;30.65
66801;BME280;53703;50.326;19.122;2023-04-06T03:05:06;99045.71;;;16.03;30.80
66801;BME280;53703;50.326;19.122;2023-04-06T03:08:00;99046.15;;;16.00;31.41
66801;BME280;53703;50.326;19.122;2023-04-06T03:10:54;99045.02;;;16.05;31.20
66801;BME280;53703;50.326;19.122;2023-04-06T03:13:48;99043.16;;;16.04;31.21
66801;BME280;53703;50.326;19.122;2023-04-06T03:16:43;99045.10;;;16.01;31.30
66801;BME280;53703;50.326;19.122;2023-04-06T03:19:37;99045.34;;;16.09;30.83
66801;BME280;53703;50.326;19.122;2023-04-06T03:22:31;99048.45;;;16.12;31.57
66801;BME280;53703;50.326;19.122;2023-04-06T03:25:25;99049.42;;;16.11;31.42
66801;BME280;53703;50.326;19.122;2023-04-06T03:28:04;99048.67;;;16.11;31.01
66801;BME280;53703;50.326;19.122;2023-04-06T03:30:59;99050.27;;;16.13;30.90
66801;BME280;53703;50.326;19.122;2023-04-06T03:33:55;99053.42;;;16.06;31.16
66801;BME280;53703;50.326;19.122;2023-04-06T03:36:48;99049.66;;;16.05;31.03
66801;BME280;53703;50.326;19.122;2023-04-06T03:40:03;99046.42;;;16.01;30.90
66801;BME280;53703;50.326;19.122;2023-04-06T03:42:58;99048.95;;;16.07;31.34
66801;BME280;53703;50.326;19.122;2023-04-06T03:45:52;99048.60;;;16.04;31.20
66801;BME280;53703;50.326;19.122;2023-04-06T03:48:47;99051.77;;;16.01;31.37
66801;BME280;53703;50.326;19.122;2023-04-06T03:51:42;99051.52;;;16.06;31.15
66801;BME280;53703;50.326;19.122;2023-04-06T03:54:36;99058.18;;;16.05;31.17
66801;BME280;53703;50.326;19.122;2023-04-06T03:57:30;99055.92;;;15.95;31.13
66801;BME280;53703;50.326;19.122;2023-04-06T04:00:24;99057.44;;;15.85;31.02
66801;BME280;53703;50.326;19.122;2023-04-06T04:03:18;99055.76;;;15.84;31.19
66801;BME280;53703;50.326;19.122;2023-04-06T04:06:15;99056.95;;;15.81;31.25
66801;BME280;53703;50.326;19.122;2023-04-06T04:09:09;99056.82;;;15.78;31.42
66801;BME280;53703;50.326;19.122;2023-04-06T04:12:04;99053.49;;;15.74;31.31
66801;BME280;53703;50.326;19.122;2023-04-06T04:14:58;99054.88;;;15.81;31.10
66801;BME280;53703;50.326;19.122;2023-04-06T04:17:52;99057.44;;;15.82;31.50
66801;BME280;53703;50.326;19.122;2023-04-06T04:20:46;99062.06;;;16.06;32.52
66801;BME280;53703;50.326;19.122;2023-04-06T04:23:40;99061.29;;;15.87;32.51
66801;BME280;53703;50.326;19.122;2023-04-06T04:26:34;99062.35;;;15.95;32.08
66801;BME280;53703;50.326;19.122;2023-04-06T04:29:11;99063.80;;;16.08;31.73
66801;BME280;53703;50.326;19.122;2023-04-06T04:32:05;99064.70;;;16.29;31.93
66801;BME280;53703;50.326;19.122;2023-04-06T04:34:59;99058.20;;;16.41;32.86
66801;BME280;53703;50.326;19.122;2023-04-06T04:37:53;99059.98;;;16.07;31.63
66801;BME280;53703;50.326;19.122;2023-04-06T04:40:47;99055.94;;;15.95;30.69
66801;BME280;53703;50.326;19.122;2023-04-06T04:43:41;99057.61;;;15.98;30.60
66801;BME280;53703;50.326;19.122;2023-04-06T04:46:35;99059.07;;;16.43;30.12
66801;BME280;53703;50.326;19.122;2023-04-06T04:49:29;99059.48;;;16.25;30.51
66801;BME280;53703;50.326;19.122;2023-04-06T04:52:23;99056.30;;;16.20;31.19
66801;BME280;53703;50.326;19.122;2023-04-06T04:55:17;99057.66;;;16.38;30.31
66801;BME280;53703;50.326;19.122;2023-04-06T04:58:12;99057.96;;;16.43;29.73
66801;BME280;53703;50.326;19.122;2023-04-06T05:01:09;99060.35;;;16.38;30.76
66801;BME280;53703;50.326;19.122;2023-04-06T05:04:03;99058.20;;;16.17;31.34
66801;BME280;53703;50.326;19.122;2023-04-06T05:07:07;99055.09;;;16.27;31.22
66801;BME280;53703;50.326;19.122;2023-04-06T05:10:01;99054.32;;;16.26;31.03
66801;BME280;53703;50.326;19.122;2023-04-06T05:12:56;99051.58;;;16.20;31.15
66801;BME280;53703;50.326;19.122;2023-04-06T05:15:51;99050.31;;;16.07;31.47
66801;BME280;53703;50.326;19.122;2023-04-06T05:18:44;99049.33;;;16.10;31.04
66801;BME280;53703;50.326;19.122;2023-04-06T05:21:38;99050.11;;;16.10;31.08
66801;BME280;53703;50.326;19.122;2023-04-06T05:24:33;99051.27;;;16.17;31.07
66801;BME280;53703;50.326;19.122;2023-04-06T05:27:27;99051.80;;;16.03;31.37
66801;BME280;53703;50.326;19.122;2023-04-06T05:30:21;99056.52;;;16.07;31.40
66801;BME280;53703;50.326;19.122;2023-04-06T05:33:15;99051.21;;;16.08;31.33
66801;BME280;53703;50.326;19.122;2023-04-06T05:36:10;99049.32;;;16.13;31.23
66801;BME280;53703;50.326;19.122;2023-04-06T05:39:06;99049.34;;;16.01;31.09
66801;BME280;53703;50.326;19.122;2023-04-06T05:42:04;99050.85;;;16.07;31.21
66801;BME280;53703;50.326;19.122;2023-04-06T05:44:59;99056.08;;;16.22;31.06
66801;BME280;53703;50.326;19.122;2023-04-06T05:47:53;99052.85;;;16.41;30.87
66801;BME280;53703;50.326;19.122;2023-04-06T05:50:51;99049.58;;;16.10;31.31
66801;BME280;53703;50.326;19.122;2023-04-06T05:53:46;99045.72;;;16.01;31.19
66801;BME280;53703;50.326;19.122;2023-04-06T05:56:40;99043.55;;;16.04;31.30
66801;BME280;53703;50.326;19.122;2023-04-06T05:59:34;99040.63;;;16.05;31.54
66801;BME280;53703;50.326;19.122;2023-04-06T06:02:28;99039.83;;;16.03;31.27
66801;BME280;53703;50.326;19.122;2023-04-06T06:05:23;99041.52;;;16.00;31.26
66801;BME280;53703;50.326;19.122;2023-04-06T06:08:18;99042.44;;;16.09;31.08
66801;BME280;53703;50.326;19.122;2023-04-06T06:11:12;99036.79;;;16.02;31.53
66801;BME280;53703;50.326;19.122;2023-04-06T06:14:06;99033.09;;;16.38;30.96
66801;BME280;53703;50.326;19.122;2023-04-06T06:17:00;99036.37;;;16.93;30.48
66801;BME280;53703;50.326;19.122;2023-04-06T06:19:54;99039.77;;;16.49;30.48
66801;BME280;53703;50.326;19.122;2023-04-06T06:22:48;99038.29;;;16.56;30.37
66801;BME280;53703;50.326;19.122;2023-04-06T06:25:42;99041.20;;;16.23;31.50
66801;BME280;53703;50.326;19.122;2023-04-06T06:28:36;99041.17;;;16.24;31.18
66801;BME280;53703;50.326;19.122;2023-04-06T06:31:30;99040.35;;;16.40;30.15
66801;BME280;53703;50.326;19.122;2023-04-06T06:34:24;99033.61;;;16.70;30.18
66801;BME280;53703;50.326;19.122;2023-04-06T06:37:19;99038.45;;;16.57;30.83
66801;BME280;53703;50.326;19.122;2023-04-06T06:40:13;99036.89;;;16.63;30.05
66801;BME280;53703;50.326;19.122;2023-04-06T06:43:09;99035.49;;;16.69;29.67
66801;BME280;53703;50.326;19.122;2023-04-06T06:46:03;99035.80;;;16.58;29.76
66801;BME280;53703;50.326;19.122;2023-04-06T06:48:58;99039.77;;;16.86;30.03
66801;BME280;53703;50.326;19.122;2023-04-06T06:51:53;99039.14;;;16.41;29.72
66801;BME280;53703;50.326;19.122;2023-04-06T06:54:38;99042.46;;;16.49;30.75
66801;BME280;53703;50.326;19.122;2023-04-06T06:57:32;99042.09;;;16.79;30.80
66801;BME280;53703;50.326;19.122;2023-04-06T07:00:26;99038.76;;;16.57;31.58
66801;BME280;53703;50.326;19.122;2023-04-06T07:03:20;99045.02;;;16.65;34.79
66801;BME280;53703;50.326;19.122;2023-04-06T07:06:14;99046.30;;;16.31;34.21
66801;BME280;53703;50.326;19.122;2023-04-06T07:09:08;99047.53;;;16.44;33.95
66801;BME280;53703;50.326;19.122;2023-04-06T07:12:01;99043.69;;;16.58;33.53
66801;BME280;53703;50.326;19.122;2023-04-06T07:14:56;99047.09;;;16.43;33.69
66801;BME280;53703;50.326;19.122;2023-04-06T07:17:51;99042.73;;;17.04;33.18
66801;BME280;53703;50.326;19.122;2023-04-06T07:20:48;99043.21;;;16.62;33.25
66801;BME280;53703;50.326;19.122;2023-04-06T07:23:42;99042.23;;;17.06;32.90
66801;BME280;53703;50.326;19.122;2023-04-06T07:26:36;99039.64;;;16.65;34.41
66801;BME280;53703;50.326;19.122;2023-04-06T07:29:30;99043.27;;;16.57;34.79
66801;BME280;53703;50.326;19.122;2023-04-06T07:32:24;99043.63;;;16.47;34.53
66801;BME280;53703;50.326;19.122;2023-04-06T07:35:19;99040.14;;;16.66;33.68
66801;BME280;53703;50.326;19.122;2023-04-06T07:38:13;99045.52;;;16.32;34.72
66801;BME280;53703;50.326;19.122;2023-04-06T07:41:07;99037.56;;;16.86;33.61
66801;BME280;53703;50.326;19.122;2023-04-06T07:44:01;99041.16;;;16.85;31.28
66801;BME280;53703;50.326;19.122;2023-04-06T07:46:55;99044.35;;;16.90;32.30
66801;BME280;53703;50.326;19.122;2023-04-06T07:49:49;99041.41;;;17.27;32.58
66801;BME280;53703;50.326;19.122;2023-04-06T07:52:43;99042.13;;;17.03;31.63
66801;BME280;53703;50.326;19.122;2023-04-06T07:55:38;99043.90;;;16.48;31.43
66801;BME280;53703;50.326;19.122;2023-04-06T07:58:32;99049.04;;;16.38;32.34
66801;BME280;53703;50.326;19.122;2023-04-06T08:01:27;99043.14;;;16.67;30.39
66801;BME280;53703;50.326;19.122;2023-04-06T08:04:21;99043.55;;;16.92;31.44
66801;BME280;53703;50.326;19.122;2023-04-06T08:07:15;99045.16;;;16.71;30.31
66801;BME280;53703;50.326;19.122;2023-04-06T08:10:10;99044.09;;;15.56;28.86
66801;BME280;53703;50.326;19.122;2023-04-06T08:13:04;99042.55;;;14.40;33.35
66801;BME280;53703;50.326;19.122;2023-04-06T08:15:58;99039.83;;;13.91;39.70
66801;BME280;53703;50.326;19.122;2023-04-06T08:18:52;99047.38;;;13.23;35.70
66801;BME280;53703;50.326;19.122;2023-04-06T08:21:46;99047.98;;;11.99;30.64
66801;BME280;53703;50.326;19.122;2023-04-06T08:24:41;99043.95;;;13.45;29.74
66801;BME280;53703;50.326;19.122;2023-04-06T08:27:35;99040.63;;;14.91;30.98
66801;BME280;53703;50.326;19.122;2023-04-06T08:30:30;99044.62;;;15.62;31.45
66801;BME280;53703;50.326;19.122;2023-04-06T08:33:25;99047.68;;;15.87;31.66
66801;BME280;53703;50.326;19.122;2023-04-06T08:36:19;99042.90;;;15.92;31.91
66801;BME280;53703;50.326;19.122;2023-04-06T08:39:16;99040.60;;;16.16;31.72
66801;BME280;53703;50.326;19.122;2023-04-06T08:42:21;99043.17;;;16.26;31.80
66801;BME280;53703;50.326;19.122;2023-04-06T08:45:15;99040.90;;;16.38;31.40
66801;BME280;53703;50.326;19.122;2023-04-06T08:48:13;99032.09;;;16.65;30.13
66801;BME280;53703;50.326;19.122;2023-04-06T08:51:09;99037.17;;;16.42;31.15
66801;BME280;53703;50.326;19.122;2023-04-06T08:54:03;99031.75;;;16.68;29.25
66801;BME280;53703;50.326;19.122;2023-04-06T08:56:57;99031.73;;;16.72;31.25
66801;BME280;53703;50.326;19.122;2023-04-06T08:59:51;99030.78;;;16.60;31.92
66801;BME280;53703;50.326;19.122;2023-04-06T09:02:47;99026.46;;;16.68;31.14
66801;BME280;53703;50.326;19.122;2023-04-06T09:05:43;99026.01;;;13.80;29.54
66801;BME280;53703;50.326;19.122;2023-04-06T09:08:40;99028.43;;;13.76;30.76
66801;BME280;53703;50.326;19.122;2023-04-06T09:11:53;99023.09;;;15.43;31.00
66801;BME280;53703;50.326;19.122;2023-04-06T09:14:47;99025.87;;;15.95;31.44
66801;BME280;53703;50.326;19.122;2023-04-06T09:17:45;99019.02;;;16.13;31.60
66801;BME280;53703;50.326;19.122;2023-04-06T09:20:39;99014.73;;;16.24;31.56
66801;BME280;53703;50.326;19.122;2023-04-06T09:23:33;99012.86;;;16.35;32.02
66801;BME280;53703;50.326;19.122;2023-04-06T09:26:28;99004.08;;;16.50;31.58
66801;BME280;53703;50.326;19.122;2023-04-06T09:29:27;99004.94;;;16.75;31.34
66801;BME280;53703;50.326;19.122;2023-04-06T09:32:21;99002.74;;;16.64;33.99
66801;BME280;53703;50.326;19.122;2023-04-06T09:35:16;99001.92;;;16.36;34.55
66801;BME280;53703;50.326;19.122;2023-04-06T09:38:14;98993.92;;;16.67;34.86
66801;BME280;53703;50.326;19.122;2023-04-06T09:41:08;98994.71;;;16.42;37.31
66801;BME280;53703;50.326;19.122;2023-04-06T09:44:10;99004.02;;;16.16;39.24
66801;BME280;53703;50.326;19.122;2023-04-06T09:47:07;98999.02;;;16.30;38.50
66801;BME280;53703;50.326;19.122;2023-04-06T09:50:03;98993.53;;;16.34;39.20
66801;BME280;53703;50.326;19.122;2023-04-06T09:52:59;98989.04;;;16.41;38.55
66801;BME280;53703;50.326;19.122;2023-04-06T09:55:59;98986.04;;;16.45;38.74
66801;BME280;53703;50.326;19.122;2023-04-06T09:59:01;98983.98;;;16.41;38.36
66801;BME280;53703;50.326;19.122;2023-04-06T10:01:57;98979.64;;;16.50;38.05
66801;BME280;53703;50.326;19.122;2023-04-06T10:04:58;98971.20;;;16.60;37.88
66801;BME280;53703;50.326;19.122;2023-04-06T10:07:57;98979.46;;;16.58;38.07
66801;BME280;53703;50.326;19.122;2023-04-06T10:10:53;98975.42;;;16.44;39.24
66801;BME280;53703;50.326;19.122;2023-04-06T10:13:48;98967.91;;;16.57;36.98
66801;BME280;53703;50.326;19.122;2023-04-06T10:16:43;98963.38;;;16.67;36.98
66801;BME280;53703;50.326;19.122;2023-04-06T10:19:46;98966.02;;;16.87;37.04
66801;BME280;53703;50.326;19.122;2023-04-06T10:22:48;98960.27;;;16.99;35.95
66801;BME280;53703;50.326;19.122;2023-04-06T10:26:00;98963.79;;;16.76;36.62
66801;BME280;53703;50.326;19.122;2023-04-06T10:29:01;98954.55;;;16.63;36.00
66801;BME280;53703;50.326;19.122;2023-04-06T10:31:57;98960.18;;;16.70;36.70
66801;BME280;53703;50.326;19.122;2023-04-06T10:34:52;98955.56;;;16.68;36.54
66801;BME280;53703;50.326;19.122;2023-04-06T10:38:01;98952.64;;;16.70;36.52
66801;BME280;53703;50.326;19.122;2023-04-06T10:41:05;98953.56;;;16.64;36.98
66801;BME280;53703;50.326;19.122;2023-04-06T10:44:00;98942.38;;;16.72;36.36
66801;BME280;53703;50.326;19.122;2023-04-06T10:46:59;98942.00;;;16.74;37.28
66801;BME280;53703;50.326;19.122;2023-04-06T10:49:56;98945.14;;;16.91;35.90
66801;BME280;53703;50.326;19.122;2023-04-06T10:53:10;98940.05;;;16.91;35.03
66801;BME280;53703;50.326;19.122;2023-04-06T10:56:08;98940.63;;;17.02;34.67
66801;BME280;53703;50.326;19.122;2023-04-06T10:59:03;98938.95;;;16.95;34.95
66801;BME280;53703;50.326;19.122;2023-04-06T11:01:59;98934.45;;;17.07;33.73
66801;BME280;53703;50.326;19.122;2023-04-06T11:05:00;98928.20;;;17.29;33.42
66801;BME280;53703;50.326;19.122;2023-04-06T11:07:53;98938.95;;;17.19;32.01
66801;BME280;53703;50.326;19.122;2023-04-06T11:10:47;98935.02;;;17.08;30.98
66801;BME280;53703;50.326;19.122;2023-04-06T11:13:46;98932.69;;;16.85;30.99
66801;BME280;53703;50.326;19.122;2023-04-06T11:16:40;98931.75;;;16.15;30.00
66801;BME280;53703;50.326;19.122;2023-04-06T11:19:35;98931.31;;;17.32;30.68
66801;BME280;53703;50.326;19.122;2023-04-06T11:22:30;98929.84;;;17.59;30.76
66801;BME280;53703;50.326;19.122;2023-04-06T11:25:25;98922.81;;;17.57;30.36
66801;BME280;53703;50.326;19.122;2023-04-06T11:28:22;98920.14;;;17.45;30.72
66801;BME280;53703;50.326;19.122;2023-04-06T11:31:16;98921.39;;;17.66;30.62
66801;BME280;53703;50.326;19.122;2023-04-06T11:34:15;98922.27;;;17.61;29.26
66801;BME280;53703;50.326;19.122;2023-04-06T11:37:13;98914.40;;;17.97;27.40
66801;BME280;53703;50.326;19.122;2023-04-06T11:40:11;98917.48;;;18.03;29.96
66801;BME280;53703;50.326;19.122;2023-04-06T11:43:05;98919.38;;;17.97;30.97
66801;BME280;53703;50.326;19.122;2023-04-06T11:46:04;98909.75;;;17.94;30.71
66801;BME280;53703;50.326;19.122;2023-04-06T11:49:02;98906.09;;;17.94;32.16
66801;BME280;53703;50.326;19.122;2023-04-06T11:51:56;98911.30;;;17.75;30.70
66801;BME280;53703;50.326;19.122;2023-04-06T11:54:52;98905.90;;;17.81;31.56
66801;BME280;53703;50.326;19.122;2023-04-06T11:57:46;98900.80;;;17.91;31.76
66801;BME280;53703;50.326;19.122;2023-04-06T12:00:43;98905.41;;;18.11;32.69
66801;BME280;53703;50.326;19.122;2023-04-06T12:03:39;98904.64;;;18.11;32.70
66801;BME280;53703;50.326;19.122;2023-04-06T12:06:33;98898.33;;;17.88;31.49
66801;BME280;53703;50.326;19.122;2023-04-06T12:09:27;98901.91;;;18.03;32.68
66801;BME280;53703;50.326;19.122;2023-04-06T12:12:21;98903.94;;;17.93;31.07
66801;BME280;53703;50.326;19.122;2023-04-06T12:15:15;98901.73;;;17.91;33.10
66801;BME280;53703;50.326;19.122;2023-04-06T12:18:09;98896.18;;;18.09;33.32
66801;BME280;53703;50.326;19.122;2023-04-06T12:21:04;98896.21;;;18.09;33.02
66801;BME280;53703;50.326;19.122;2023-04-06T12:23:59;98891.13;;;17.75;33.84
66801;BME280;53703;50.326;19.122;2023-04-06T12:26:54;98892.30;;;17.84;33.67
66801;BME280;53703;50.326;19.122;2023-04-06T12:30:01;98891.69;;;17.78;33.68
66801;BME280;53703;50.326;19.122;2023-04-06T12:32:55;98892.80;;;17.80;33.40
66801;BME280;53703;50.326;19.122;2023-04-06T12:35:49;98884.23;;;17.81;33.45
66801;BME280;53703;50.326;19.122;2023-04-06T12:38:43;98882.30;;;18.23;32.86
66801;BME280;53703;50.326;19.122;2023-04-06T12:41:38;98878.35;;;18.13;32.33
66801;BME280;53703;50.326;19.122;2023-04-06T12:44:33;98877.05;;;18.15;31.76
66801;BME280;53703;50.326;19.122;2023-04-06T12:47:28;98878.86;;;18.27;32.62
66801;BME280;53703;50.326;19.122;2023-04-06T12:50:22;98876.83;;;18.08;30.69
66801;BME280;53703;50.326;19.122;2023-04-06T12:53:16;98876.56;;;18.11;31.14
66801;BME280;53703;50.326;19.122;2023-04-06T12:56:16;98875.59;;;18.23;30.51
66801;BME280;53703;50.326;19.122;2023-04-06T12:59:10;98877.14;;;18.05;31.51
66801;BME280;53703;50.326;19.122;2023-04-06T13:02:04;98877.33;;;17.87;32.06
66801;BME280;53703;50.326;19.122;2023-04-06T13:05:01;98876.09;;;17.90;31.37
66801;BME280;53703;50.326;19.122;2023-04-06T13:07:55;98873.39;;;18.09;31.28
66801;BME280;53703;50.326;19.122;2023-04-06T13:10:52;98872.77;;;18.09;30.39
66801;BME280;53703;50.326;19.122;2023-04-06T13:13:46;98877.33;;;18.16;31.37
66801;BME280;53703;50.326;19.122;2023-04-06T13:16:40;98874.70;;;18.10;30.85
66801;BME280;53703;50.326;19.122;2023-04-06T13:19:35;98871.06;;;18.22;30.73
66801;BME280;53703;50.326;19.122;2023-04-06T13:22:29;98873.55;;;18.28;30.72
66801;BME280;53703;50.326;19.122;2023-04-06T13:25:24;98872.23;;;18.24;30.51
66801;BME280;53703;50.326;19.122;2023-04-06T13:28:18;98873.80;;;18.09;30.77
66801;BME280;53703;50.326;19.122;2023-04-06T13:31:12;98872.59;;;18.11;30.84
66801;BME280;53703;50.326;19.122;2023-04-06T13:34:07;98874.66;;;18.16;30.78
66801;BME280;53703;50.326;19.122;2023-04-06T13:37:01;98869.30;;;18.09;32.55
66801;BME280;53703;50.326;19.122;2023-04-06T13:39:55;98861.52;;;18.17;29.85
66801;BME280;53703;50.326;19.122;2023-04-06T13:42:49;98854.55;;;18.32;29.82
66801;BME280;53703;50.326;19.122;2023-04-06T13:45:42;98848.66;;;18.22;30.22
66801;BME280;53703;50.326;19.122;2023-04-06T13:48:54;98846.34;;;18.02;31.49
66801;BME280;53703;50.326;19.122;2023-04-06T13:51:48;98852.23;;;17.97;32.19
66801;BME280;53703;50.326;19.122;2023-04-06T13:54:43;98846.20;;;18.00;31.09
66801;BME280;53703;50.326;19.122;2023-04-06T13:57:38;98841.92;;;17.83;30.96
66801;BME280;53703;50.326;19.122;2023-04-06T14:00:32;98840.79;;;17.81;31.37
66801;BME280;53703;50.326;19.122;2023-04-06T14:03:27;98837.48;;;17.87;32.67
66801;BME280;53703;50.326;19.122;2023-04-06T14:06:21;98840.83;;;18.02;31.38
66801;BME280;53703;50.326;19.122;2023-04-06T14:09:23;98837.57;;;18.14;31.29
66801;BME280;53703;50.326;19.122;2023-04-06T14:12:17;98835.70;;;17.83;31.15
66801;BME280;53703;50.326;19.122;2023-04-06T14:15:13;98835.41;;;17.78;31.26
66801;BME280;53703;50.326;19.122;2023-04-06T14:18:08;98833.61;;;17.70;31.62
66801;BME280;53703;50.326;19.122;2023-04-06T14:21:03;98826.61;;;17.78;32.18
66801;BME280;53703;50.326;19.122;2023-04-06T14:23:58;98831.14;;;18.00;32.02
66801;BME280;53703;50.326;19.122;2023-04-06T14:26:52;98832.00;;;17.96;32.58
66801;BME280;53703;50.326;19.122;2023-04-06T14:29:46;98832.86;;;17.88;32.68
66801;BME280;53703;50.326;19.122;2023-04-06T14:32:39;98827.66;;;17.93;31.77
66801;BME280;53703;50.326;19.122;2023-04-06T14:35:34;98827.64;;;17.73;31.69
66801;BME280;53703;50.326;19.122;2023-04-06T14:38:28;98833.58;;;17.69;31.60
66801;BME280;53703;50.326;19.122;2023-04-06T14:41:24;98829.84;;;17.65;32.06
66801;BME280;53703;50.326;19.122;2023-04-06T14:44:18;98836.09;;;17.57;32.77
66801;BME280;53703;50.326;19.122;2023-04-06T14:47:12;98836.55;;;17.42;32.21
66801;BME280;53703;50.326;19.122;2023-04-06T14:50:10;98838.08;;;17.36;32.96
66801;BME280;53703;50.326;19.122;2023-04-06T14:53:04;98838.38;;;17.29;32.86
66801;BME280;53703;50.326;19.122;2023-04-06T14:55:58;98829.55;;;17.29;32.89
66801;BME280;53703;50.326;19.122;2023-04-06T14:58:52;98828.58;;;17.25;33.75
66801;BME280;53703;50.326;19.122;2023-04-06T15:01:47;98824.51;;;17.24;33.53
66801;BME280;53703;50.326;19.122;2023-04-06T15:04:41;98822.56;;;17.74;33.66
66801;BME280;53703;50.326;19.122;2023-04-06T15:07:35;98823.16;;;17.47;32.70
66801;BME280;53703;50.326;19.122;2023-04-06T15:10:30;98824.29;;;17.27;33.52
66801;BME280;53703;50.326;19.122;2023-04-06T15:13:24;98823.41;;;17.50;32.32
66801;BME280;53703;50.326;19.122;2023-04-06T15:16:18;98823.21;;;17.92;33.42